sensor_id;sensor_type;location;lat;lon;timestamp;pressure;altitude;pressure_sealevel;temperature;humidity
63535;BME280;55128;50.230;18.944;2023-03-03T00:02:21;98683.03;;;-1.25;73.91
63535;BME280;55128;50.230;18.944;2023-03-03T00:07:21;98686.53;;;-1.22;72.53
63535;BME280;55128;50.230;18.944;2023-03-03T00:12:28;98684.78;;;-1.23;73.47
63535;BME280;55128;50.230;18.944;2023-03-03T00:17:29;98677.81;;;-1.33;73.33
63535;BME280;55128;50.230;18.944;2023-03-03T00:22:35;98679.56;;;-1.35;72.76
63535;BME280;55128;50.230;18.944;2023-03-03T00:27:36;98683.00;;;-1.39;73.43
63535;BME280;55128;50.230;18.944;2023-03-03T00:32:41;98686.47;;;-1.46;73.58
63535;BME280;55128;50.230;18.944;2023-03-03T00:37:42;98671.69;;;-1.47;72.38
63535;BME280;55128;50.230;18.944;2023-03-03T00:42:46;98679.47;;;-1.58;73.58
63535;BME280;55128;50.230;18.944;2023-03-03T00:47:48;98672.50;;;-1.67;74.43
63535;BME280;55128;50.230;18.944;2023-03-03T00:57:59;98677.72;;;-1.61;74.28
63535;BME280;55128;50.230;18.944;2023-03-03T01:03:03;98671.66;;;-1.63;73.05
63535;BME280;55128;50.230;18.944;2023-03-03T01:08:04;98672.44;;;-1.82;73.93
63535;BME280;55128;50.230;18.944;2023-03-03T01:13:05;98669.84;;;-1.81;73.89
63535;BME280;55128;50.230;18.944;2023-03-03T01:18:06;98662.84;;;-1.96;74.44
63535;BME280;55128;50.230;18.944;2023-03-03T01:23:06;98650.72;;;-1.97;75.10
63535;BME280;55128;50.230;18.944;2023-03-03T01:28:07;98644.66;;;-1.91;74.56
63535;BME280;55128;50.230;18.944;2023-03-03T01:33:08;98638.56;;;-1.96;74.17
63535;BME280;55128;50.230;18.944;2023-03-03T01:38:08;98625.50;;;-2.08;74.72
63535;BME280;55128;50.230;18.944;2023-03-03T01:43:13;98628.00;;;-2.25;75.62
63535;BME280;55128;50.230;18.944;2023-03-03T01:48:22;98623.69;;;-2.26;75.81
63535;BME280;55128;50.230;18.944;2023-03-03T01:53:33;98627.19;;;-2.18;75.75
63535;BME280;55128;50.230;18.944;2023-03-03T01:58:37;98619.41;;;-2.15;75.75
63535;BME280;55128;50.230;18.944;2023-03-03T02:03:39;98619.38;;;-2.24;76.39
63535;BME280;55128;50.230;18.944;2023-03-03T02:08:50;98626.31;;;-2.23;74.26
63535;BME280;55128;50.230;18.944;2023-03-03T02:13:53;98630.59;;;-2.25;74.42
63535;BME280;55128;50.230;18.944;2023-03-03T02:18:53;98628.91;;;-2.22;74.95
63535;BME280;55128;50.230;18.944;2023-03-03T02:29:21;98630.59;;;-2.31;74.53
63535;BME280;55128;50.230;18.944;2023-03-03T02:34:21;98639.22;;;-2.36;73.74
63535;BME280;55128;50.230;18.944;2023-03-03T02:39:25;98637.47;;;-2.41;74.10
63535;BME280;55128;50.230;18.944;2023-03-03T02:44:28;98644.41;;;-2.40;73.72
63535;BME280;55128;50.230;18.944;2023-03-03T02:49:31;98649.53;;;-2.48;74.00
63535;BME280;55128;50.230;18.944;2023-03-03T02:54:32;98646.03;;;-2.55;73.60
63535;BME280;55128;50.230;18.944;2023-03-03T02:59:32;98646.03;;;-2.56;74.08
63535;BME280;55128;50.230;18.944;2023-03-03T03:04:33;98640.84;;;-2.56;73.77
63535;BME280;55128;50.230;18.944;2023-03-03T03:09:33;98636.50;;;-2.59;73.24
63535;BME280;55128;50.230;18.944;2023-03-03T03:14:34;98631.25;;;-2.63;74.10
63535;BME280;55128;50.230;18.944;2023-03-03T03:19:34;98630.34;;;-2.68;73.16
63535;BME280;55128;50.230;18.944;2023-03-03T03:24:35;98628.59;;;-2.72;73.61
63535;BME280;55128;50.230;18.944;2023-03-03T03:29:35;98626.06;;;-2.66;74.13
63535;BME280;55128;50.230;18.944;2023-03-03T03:34:35;98627.75;;;-2.68;73.83
63535;BME280;55128;50.230;18.944;2023-03-03T03:39:36;98626.78;;;-2.83;73.45
63535;BME280;55128;50.230;18.944;2023-03-03T03:44:36;98621.53;;;-2.92;75.25
63535;BME280;55128;50.230;18.944;2023-03-03T03:49:37;98607.75;;;-2.82;73.93
63535;BME280;55128;50.230;18.944;2023-03-03T03:54:37;98602.56;;;-2.83;74.41
63535;BME280;55128;50.230;18.944;2023-03-03T03:59:37;98617.22;;;-2.90;73.90
63535;BME280;55128;50.230;18.944;2023-03-03T04:04:38;98623.09;;;-3.11;73.72
63535;BME280;55128;50.230;18.944;2023-03-03T04:09:38;98624.03;;;-3.06;73.69
63535;BME280;55128;50.230;18.944;2023-03-03T04:14:38;98631.66;;;-3.21;73.40
63535;BME280;55128;50.230;18.944;2023-03-03T04:19:39;98642.06;;;-3.20;75.02
63535;BME280;55128;50.230;18.944;2023-03-03T04:24:39;98634.34;;;-3.10;74.78
63535;BME280;55128;50.230;18.944;2023-03-03T04:29:40;98630.03;;;-3.10;73.88
63535;BME280;55128;50.230;18.944;2023-03-03T04:34:41;98629.97;;;-3.18;74.47
63535;BME280;55128;50.230;18.944;2023-03-03T04:39:41;98629.97;;;-3.18;72.83
63535;BME280;55128;50.230;18.944;2023-03-03T04:44:42;98630.72;;;-3.31;73.59
63535;BME280;55128;50.230;18.944;2023-03-03T04:49:42;98641.91;;;-3.35;73.85
63535;BME280;55128;50.230;18.944;2023-03-03T04:54:43;98636.78;;;-3.29;73.65
63535;BME280;55128;50.230;18.944;2023-03-03T04:59:43;98627.34;;;-3.22;73.95
63535;BME280;55128;50.230;18.944;2023-03-03T05:04:44;98615.94;;;-3.38;74.59
63535;BME280;55128;50.230;18.944;2023-03-03T05:09:44;98629.16;;;-3.10;74.82
63535;BME280;55128;50.230;18.944;2023-03-03T05:14:44;98626.75;;;-2.86;74.95
63535;BME280;55128;50.230;18.944;2023-03-03T05:19:45;98641.53;;;-2.80;75.09
63535;BME280;55128;50.230;18.944;2023-03-03T05:24:45;98643.16;;;-2.91;75.50
63535;BME280;55128;50.230;18.944;2023-03-03T05:29:48;98650.13;;;-2.87;76.45
63535;BME280;55128;50.230;18.944;2023-03-03T05:34:48;98659.88;;;-2.60;76.80
63535;BME280;55128;50.230;18.944;2023-03-03T05:39:50;98657.25;;;-2.60;75.75
63535;BME280;55128;50.230;18.944;2023-03-03T05:44:50;98669.25;;;-2.79;75.76
63535;BME280;55128;50.230;18.944;2023-03-03T05:49:50;98677.22;;;-2.56;75.48
63535;BME280;55128;50.230;18.944;2023-03-03T05:54:50;98680.72;;;-2.48;75.13
63535;BME280;55128;50.230;18.944;2023-03-03T05:59:51;98682.78;;;-1.94;75.42
63535;BME280;55128;50.230;18.944;2023-03-03T06:04:51;98696.59;;;-2.05;74.82
63535;BME280;55128;50.230;18.944;2023-03-03T06:09:52;98697.53;;;-1.90;74.91
63535;BME280;55128;50.230;18.944;2023-03-03T06:14:52;98704.63;;;-1.57;74.80
63535;BME280;55128;50.230;18.944;2023-03-03T06:19:53;98714.19;;;-1.48;74.62
63535;BME280;55128;50.230;18.944;2023-03-03T06:24:53;98715.16;;;-1.25;74.73
63535;BME280;55128;50.230;18.944;2023-03-03T06:29:53;98723.84;;;-1.21;74.48
63535;BME280;55128;50.230;18.944;2023-03-03T06:34:54;98706.53;;;-1.07;74.38
63535;BME280;55128;50.230;18.944;2023-03-03T06:39:54;98715.22;;;-0.83;74.31
63535;BME280;55128;50.230;18.944;2023-03-03T06:44:54;98702.22;;;-0.59;73.94
63535;BME280;55128;50.230;18.944;2023-03-03T06:49:55;98721.34;;;-0.55;73.73
63535;BME280;55128;50.230;18.944;2023-03-03T06:54:57;98743.03;;;-0.76;73.60
63535;BME280;55128;50.230;18.944;2023-03-03T07:00:24;98734.34;;;-0.72;73.71
63535;BME280;55128;50.230;18.944;2023-03-03T07:05:26;98733.50;;;-0.57;73.98
63535;BME280;55128;50.230;18.944;2023-03-03T07:10:29;98723.09;;;-0.60;74.53
63535;BME280;55128;50.230;18.944;2023-03-03T07:15:34;98735.25;;;-0.37;73.75
63535;BME280;55128;50.230;18.944;2023-03-03T07:20:37;98716.13;;;-0.52;74.56
63535;BME280;55128;50.230;18.944;2023-03-03T07:25:38;98728.28;;;-0.45;74.26
63535;BME280;55128;50.230;18.944;2023-03-03T07:30:39;98735.22;;;-0.04;72.73
63535;BME280;55128;50.230;18.944;2023-03-03T07:35:42;98751.75;;;-0.34;73.73
63535;BME280;55128;50.230;18.944;2023-03-03T07:40:50;98756.97;;;-0.38;74.35
63535;BME280;55128;50.230;18.944;2023-03-03T07:45:52;98740.41;;;-0.11;73.21
63535;BME280;55128;50.230;18.944;2023-03-03T07:50:52;98735.16;;;0.23;72.81
63535;BME280;55128;50.230;18.944;2023-03-03T07:55:53;98742.00;;;0.62;72.31
63535;BME280;55128;50.230;18.944;2023-03-03T08:11:34;98754.28;;;0.22;72.87
63535;BME280;55128;50.230;18.944;2023-03-03T08:16:37;98752.56;;;0.25;73.12
63535;BME280;55128;50.230;18.944;2023-03-03T08:21:37;98756.88;;;0.31;72.98
63535;BME280;55128;50.230;18.944;2023-03-03T08:26:38;98761.25;;;0.24;73.32
63535;BME280;55128;50.230;18.944;2023-03-03T08:31:38;98749.06;;;0.28;73.72
63535;BME280;55128;50.230;18.944;2023-03-03T08:36:38;98765.59;;;0.28;74.04
63535;BME280;55128;50.230;18.944;2023-03-03T08:41:39;98774.25;;;0.47;74.06
63535;BME280;55128;50.230;18.944;2023-03-03T08:46:42;98787.28;;;0.52;73.12
63535;BME280;55128;50.230;18.944;2023-03-03T08:51:43;98784.69;;;0.46;73.42
63535;BME280;55128;50.230;18.944;2023-03-03T08:56:43;98765.50;;;0.56;74.29
63535;BME280;55128;50.230;18.944;2023-03-03T09:01:44;98767.25;;;0.55;74.88
63535;BME280;55128;50.230;18.944;2023-03-03T09:06:44;98754.81;;;1.07;74.16
63535;BME280;55128;50.230;18.944;2023-03-03T09:11:45;98760.88;;;1.13;73.84
63535;BME280;55128;50.230;18.944;2023-03-03T09:16:53;98755.75;;;0.92;75.17
63535;BME280;55128;50.230;18.944;2023-03-03T09:21:56;98766.94;;;1.23;74.26
63535;BME280;55128;50.230;18.944;2023-03-03T09:26:58;98756.41;;;1.29;73.77
63535;BME280;55128;50.230;18.944;2023-03-03T09:32:34;98751.84;;;1.58;73.01
63535;BME280;55128;50.230;18.944;2023-03-03T09:37:36;98743.13;;;1.62;73.15
63535;BME280;55128;50.230;18.944;2023-03-03T09:42:54;98747.56;;;1.50;74.04
63535;BME280;55128;50.230;18.944;2023-03-03T09:53:32;98763.94;;;1.74;73.04
63535;BME280;55128;50.230;18.944;2023-03-03T10:04:35;98778.00;;;1.58;73.00
63535;BME280;55128;50.230;18.944;2023-03-03T10:09:45;98763.28;;;1.49;74.42
63535;BME280;55128;50.230;18.944;2023-03-03T10:20:29;98776.25;;;1.63;73.19
63535;BME280;55128;50.230;18.944;2023-03-03T10:31:42;98799.72;;;1.72;73.59
63535;BME280;55128;50.230;18.944;2023-03-03T10:42:09;98794.44;;;1.78;73.04
63535;BME280;55128;50.230;18.944;2023-03-03T10:47:37;98780.63;;;1.58;74.16
63535;BME280;55128;50.230;18.944;2023-03-03T10:58:38;98780.47;;;1.81;72.85
63535;BME280;55128;50.230;18.944;2023-03-03T11:08:46;98781.22;;;1.95;72.27
63535;BME280;55128;50.230;18.944;2023-03-03T11:13:55;98779.50;;;1.94;72.84
63535;BME280;55128;50.230;18.944;2023-03-03T11:24:38;98778.41;;;2.18;72.84
63535;BME280;55128;50.230;18.944;2023-03-03T11:35:22;98768.94;;;2.02;72.04
63535;BME280;55128;50.230;18.944;2023-03-03T11:40:26;98768.94;;;2.02;72.28
63535;BME280;55128;50.230;18.944;2023-03-03T11:45:42;98766.31;;;2.05;71.26
63535;BME280;55128;50.230;18.944;2023-03-03T11:51:02;98771.50;;;2.08;70.53
63535;BME280;55128;50.230;18.944;2023-03-03T11:56:21;98781.50;;;2.54;68.94
63535;BME280;55128;50.230;18.944;2023-03-03T12:01:44;98775.38;;;2.55;68.80
63535;BME280;55128;50.230;18.944;2023-03-03T12:07:21;98770.94;;;2.62;68.37
63535;BME280;55128;50.230;18.944;2023-03-03T12:12:35;98776.91;;;2.75;67.69
63535;BME280;55128;50.230;18.944;2023-03-03T12:28:24;98757.66;;;2.76;68.20
63535;BME280;55128;50.230;18.944;2023-03-03T12:43:54;98738.31;;;2.86;67.29
63535;BME280;55128;50.230;18.944;2023-03-03T12:48:55;98748.28;;;2.59;68.10
63535;BME280;55128;50.230;18.944;2023-03-03T12:59:19;98743.47;;;2.92;66.32
63535;BME280;55128;50.230;18.944;2023-03-03T13:31:22;98736.47;;;2.94;65.11
63535;BME280;55128;50.230;18.944;2023-03-03T13:36:50;98732.13;;;2.91;64.94
63535;BME280;55128;50.230;18.944;2023-03-03T13:42:01;98734.50;;;3.10;64.67
63535;BME280;55128;50.230;18.944;2023-03-03T13:47:15;98735.25;;;3.18;64.87
63535;BME280;55128;50.230;18.944;2023-03-03T13:52:22;98727.22;;;3.30;64.80
63535;BME280;55128;50.230;18.944;2023-03-03T14:08:23;98735.34;;;3.14;63.57
63535;BME280;55128;50.230;18.944;2023-03-03T14:13:30;98728.94;;;3.30;63.11
63535;BME280;55128;50.230;18.944;2023-03-03T14:19:42;98715.34;;;3.03;63.20
63535;BME280;55128;50.230;18.944;2023-03-03T14:24:16;98716.09;;;3.13;63.89
63535;BME280;55128;50.230;18.944;2023-03-03T14:39:38;98719.50;;;3.18;62.29
63535;BME280;55128;50.230;18.944;2023-03-03T14:49:45;98713.63;;;3.02;63.00
63535;BME280;55128;50.230;18.944;2023-03-03T14:54:49;98706.97;;;2.80;63.28
63535;BME280;55128;50.230;18.944;2023-03-03T15:05:20;98720.09;;;2.77;63.72
63535;BME280;55128;50.230;18.944;2023-03-03T15:15:33;98710.72;;;2.57;64.25
63535;BME280;55128;50.230;18.944;2023-03-03T15:20:49;98711.59;;;2.58;64.84
63535;BME280;55128;50.230;18.944;2023-03-03T15:26:02;98707.09;;;2.67;64.36
63535;BME280;55128;50.230;18.944;2023-03-03T15:47:26;98710.25;;;2.24;65.42
63535;BME280;55128;50.230;18.944;2023-03-03T16:03:07;98704.25;;;2.13;66.28
63535;BME280;55128;50.230;18.944;2023-03-03T16:08:29;98712.09;;;2.13;66.69
63535;BME280;55128;50.230;18.944;2023-03-03T16:13:55;98709.69;;;1.91;67.46
63535;BME280;55128;50.230;18.944;2023-03-03T16:19:10;98707.03;;;1.99;67.45
63535;BME280;55128;50.230;18.944;2023-03-03T16:24:36;98706.13;;;2.00;67.50
63535;BME280;55128;50.230;18.944;2023-03-03T16:35:00;98726.19;;;2.03;68.05
63535;BME280;55128;50.230;18.944;2023-03-03T16:45:26;98713.03;;;2.07;68.32
63535;BME280;55128;50.230;18.944;2023-03-03T16:50:43;98713.09;;;2.03;68.21
63535;BME280;55128;50.230;18.944;2023-03-03T17:01:18;98717.28;;;2.18;68.43
63535;BME280;55128;50.230;18.944;2023-03-03T17:06:36;98715.59;;;2.12;68.25
63535;BME280;55128;50.230;18.944;2023-03-03T17:12:07;98720.72;;;2.24;68.18
63535;BME280;55128;50.230;18.944;2023-03-03T17:23:14;98725.28;;;2.04;69.19
63535;BME280;55128;50.230;18.944;2023-03-03T17:28:47;98736.59;;;2.10;69.42
63535;BME280;55128;50.230;18.944;2023-03-03T17:34:20;98734.81;;;2.12;69.51
63535;BME280;55128;50.230;18.944;2023-03-03T17:39:38;98729.59;;;2.11;69.78
63535;BME280;55128;50.230;18.944;2023-03-03T17:44:58;98727.84;;;2.10;69.85
63535;BME280;55128;50.230;18.944;2023-03-03T17:50:49;98723.59;;;2.00;70.08
63535;BME280;55128;50.230;18.944;2023-03-03T17:56:30;98734.06;;;2.00;70.50
63535;BME280;55128;50.230;18.944;2023-03-03T18:07:32;98734.16;;;1.86;71.17
63535;BME280;55128;50.230;18.944;2023-03-03T18:12:48;98734.16;;;1.90;70.74
63535;BME280;55128;50.230;18.944;2023-03-03T18:28:35;98737.63;;;1.91;70.51
63535;BME280;55128;50.230;18.944;2023-03-03T18:33:55;98741.91;;;2.00;70.26
63535;BME280;55128;50.230;18.944;2023-03-03T18:39:00;98738.63;;;1.78;71.38
63535;BME280;55128;50.230;18.944;2023-03-03T18:44:28;98731.69;;;1.70;71.96
63535;BME280;55128;50.230;18.944;2023-03-03T18:50:03;98730.00;;;1.63;72.38
63535;BME280;55128;50.230;18.944;2023-03-03T19:00:37;98729.06;;;1.73;72.19
63535;BME280;55128;50.230;18.944;2023-03-03T19:05:50;98723.97;;;1.60;72.55
63535;BME280;55128;50.230;18.944;2023-03-03T19:11:01;98710.84;;;1.61;72.41
63535;BME280;55128;50.230;18.944;2023-03-03T19:21:06;98714.28;;;1.66;71.95
63535;BME280;55128;50.230;18.944;2023-03-03T19:31:33;98723.97;;;1.57;72.55
63535;BME280;55128;50.230;18.944;2023-03-03T19:42:15;98717.69;;;1.79;72.21
63535;BME280;55128;50.230;18.944;2023-03-03T20:14:02;98709.06;;;1.68;72.88
63535;BME280;55128;50.230;18.944;2023-03-03T20:30:16;98709.00;;;1.74;72.72
63535;BME280;55128;50.230;18.944;2023-03-03T20:35:24;98715.22;;;1.59;72.63
63535;BME280;55128;50.230;18.944;2023-03-03T20:40:42;98714.34;;;1.60;73.12
63535;BME280;55128;50.230;18.944;2023-03-03T20:56:38;98714.31;;;1.65;73.42
63535;BME280;55128;50.230;18.944;2023-03-03T21:06:52;98681.28;;;1.51;73.83
63535;BME280;55128;50.230;18.944;2023-03-03T21:11:53;98689.84;;;1.70;72.64
63535;BME280;55128;50.230;18.944;2023-03-03T21:16:56;98680.44;;;1.46;73.47
63535;BME280;55128;50.230;18.944;2023-03-03T21:21:58;98673.34;;;1.61;72.82
63535;BME280;55128;50.230;18.944;2023-03-03T21:27:00;98680.28;;;1.65;72.93
63535;BME280;55128;50.230;18.944;2023-03-03T21:32:07;98672.59;;;1.48;73.51
63535;BME280;55128;50.230;18.944;2023-03-03T21:37:10;98661.19;;;1.57;73.21
63535;BME280;55128;50.230;18.944;2023-03-03T21:42:14;98667.34;;;1.52;73.44
63535;BME280;55128;50.230;18.944;2023-03-03T21:47:22;98664.75;;;1.46;73.60
63535;BME280;55128;50.230;18.944;2023-03-03T21:52:22;98663.03;;;1.45;73.07
63535;BME280;55128;50.230;18.944;2023-03-03T21:57:23;98649.88;;;1.53;73.17
63535;BME280;55128;50.230;18.944;2023-03-03T22:02:24;98639.53;;;1.41;73.25
63535;BME280;55128;50.230;18.944;2023-03-03T22:07:24;98638.59;;;1.49;72.97
63535;BME280;55128;50.230;18.944;2023-03-03T22:12:25;98629.81;;;1.53;72.66
63535;BME280;55128;50.230;18.944;2023-03-03T22:17:25;98622.81;;;1.57;72.72
63535;BME280;55128;50.230;18.944;2023-03-03T22:22:27;98608.06;;;1.50;72.99
63535;BME280;55128;50.230;18.944;2023-03-03T22:27:27;98600.13;;;1.59;72.60
63535;BME280;55128;50.230;18.944;2023-03-03T22:32:27;98584.47;;;1.54;72.75
63535;BME280;55128;50.230;18.944;2023-03-03T22:37:28;98581.88;;;1.51;72.95
63535;BME280;55128;50.230;18.944;2023-03-03T22:42:29;98584.34;;;1.67;72.45
63535;BME280;55128;50.230;18.944;2023-03-03T22:47:29;98579.00;;;1.74;72.35
63535;BME280;55128;50.230;18.944;2023-03-03T22:52:31;98578.41;;;1.54;72.81
63535;BME280;55128;50.230;18.944;2023-03-03T22:57:32;98576.81;;;1.36;73.25
63535;BME280;55128;50.230;18.944;2023-03-03T23:02:32;98566.25;;;1.45;72.93
63535;BME280;55128;50.230;18.944;2023-03-03T23:07:34;98556.72;;;1.41;72.97
63535;BME280;55128;50.230;18.944;2023-03-03T23:12:34;98573.25;;;1.45;73.15
63535;BME280;55128;50.230;18.944;2023-03-03T23:17:35;98564.31;;;1.64;72.72
63535;BME280;55128;50.230;18.944;2023-03-03T23:22:35;98549.66;;;1.49;73.15
63535;BME280;55128;50.230;18.944;2023-03-03T23:27:36;98540.97;;;1.47;73.65
63535;BME280;55128;50.230;18.944;2023-03-03T23:32:36;98535.63;;;1.58;73.31
63535;BME280;55128;50.230;18.944;2023-03-03T23:37:37;98539.19;;;1.49;73.85
63535;BME280;55128;50.230;18.944;2023-03-03T23:42:37;98545.25;;;1.54;73.22
63535;BME280;55128;50.230;18.944;2023-03-03T23:47:37;98530.41;;;1.53;73.60
63535;BME280;55128;50.230;18.944;2023-03-03T23:52:38;98532.25;;;1.45;73.92
63535;BME280;55128;50.230;18.944;2023-03-03T23:57:38;98534.69;;;1.62;73.78
